Terminal Aerodrome Forecast
Issued by NWS

Home | Current Version | Previous Version | Text Only | Print | Product List | Glossary On
Versions: 1 2 3 4 5 6 7 8 9 10 11 12 13 14 15 16 17 18 19 20
166
FTUS43 KDLH 230413 AAA
TAFHIB
TAF AMD
KHIB 230413Z 2304/2324 36009KT P6SM BKN015 OVC080
     FM230600 35007KT P6SM BKN020
     FM231000 35007KT P6SM SCT020 BKN035
     FM231300 35007KT P6SM FEW025 SCT150=

USA.gov is the U.S. government's official web portal to all federal, state and local government web resources and services.